Time;durP1;ratioP1;P1;durP2;ratioP2;P2;SDS_P1;SDS_P2;PMS_P1;PMS_P2;Temp;Humidity;BMP_temperature;BMP_pressure;BME280_temperature;BME280_humidity;BME280_pressure;Samples;Min_cycle;Max_cycle;Signal;HPM_P1;HPM_P2
2022/09/22 00:01:43;;;;;;;9.73;5.65;;;;;;;;;;5066061;28;20032;-84
2022/09/22 00:04:35;;;;;;;11.48;5.85;;;;;;;;;;5063631;28;20416;-84
2022/09/22 00:07:07;;;;;;;11.38;5.70;;;;;;;;;;5064424;28;20036;-84
2022/09/22 00:10:06;;;;;;;12.02;5.50;;;;;;;;;;5062523;28;20035;-84
2022/09/22 00:12:35;;;;;;;8.88;5.32;;;;;;;;;;5045995;28;20131;-83
2022/09/22 00:15:03;;;;;;;10.20;5.15;;;;;;;;;;5046341;28;20040;-84
2022/09/22 00:17:35;;;;;;;10.95;5.50;;;;;;;;;;5024341;28;20045;-83
2022/09/22 00:20:03;;;;;;;10.65;5.32;;;;;;;;;;5059686;28;20131;-83
2022/09/22 00:22:36;;;;;;;8.93;5.13;;;;;;;;;;5061715;28;20033;-84
2022/09/22 00:25:04;;;;;;;10.32;5.03;;;;;;;;;;5061458;28;20550;-84
2022/09/22 00:27:57;;;;;;;9.55;4.75;;;;;;;;;;5058883;28;20036;-84
2022/09/22 00:30:49;;;;;;;11.13;5.70;;;;;;;;;;5061505;28;20492;-84
2022/09/22 00:33:21;;;;;;;9.43;4.95;;;;;;;;;;5041569;28;20090;-83
2022/09/22 00:35:59;;;;;;;8.52;4.90;;;;;;;;;;5062619;28;20048;-83
2022/09/22 00:38:33;;;;;;;8.32;4.65;;;;;;;;;;5047978;28;20127;-84
2022/09/22 00:41:09;;;;;;;11.00;5.20;;;;;;;;;;5062483;28;20033;-83
2022/09/22 00:43:37;;;;;;;10.98;5.35;;;;;;;;;;5042591;28;20045;-83
2022/09/22 00:46:24;;;;;;;8.15;4.80;;;;;;;;;;5044967;28;20099;-84
2022/09/22 00:49:23;;;;;;;9.07;4.82;;;;;;;;;;5046856;28;20048;-83
2022/09/22 00:51:51;;;;;;;9.73;4.78;;;;;;;;;;5044764;28;20067;-83
2022/09/22 00:54:24;;;;;;;14.68;5.20;;;;;;;;;;5047904;28;20052;-83
2022/09/22 00:57:04;;;;;;;9.38;4.88;;;;;;;;;;5068450;28;20040;-83
2022/09/22 00:59:58;;;;;;;7.80;4.28;;;;;;;;;;5066930;28;20123;-83
2022/09/22 01:02:31;;;;;;;8.38;4.45;;;;;;;;;;5048873;28;20605;-84
2022/09/22 01:04:59;;;;;;;11.07;4.45;;;;;;;;;;5042511;28;20049;-83
2022/09/22 01:07:29;;;;;;;7.00;4.00;;;;;;;;;;5049391;28;20040;-83
2022/09/22 01:09:57;;;;;;;7.90;4.18;;;;;;;;;;5068197;28;20045;-83
2022/09/22 01:13:19;;;;;;;8.85;3.80;;;;;;;;;;5069455;28;20056;-83
2022/09/22 01:15:59;;;;;;;7.28;3.60;;;;;;;;;;5066313;28;20036;-83
2022/09/22 01:18:54;;;;;;;8.07;3.63;;;;;;;;;;5047437;28;20040;-83
2022/09/22 01:21:33;;;;;;;7.25;3.75;;;;;;;;;;5048754;28;20136;-84
2022/09/22 01:24:06;;;;;;;6.78;3.67;;;;;;;;;;5051447;28;20041;-84
2022/09/22 01:27:01;;;;;;;7.68;3.97;;;;;;;;;;5049456;28;20040;-83
2022/09/22 01:29:47;;;;;;;7.82;4.05;;;;;;;;;;5007693;28;20053;-83
2022/09/22 01:32:44;;;;;;;9.15;3.63;;;;;;;;;;5019713;28;20053;-83
2022/09/22 01:35:48;;;;;;;6.05;3.53;;;;;;;;;;5005570;28;20049;-83
2022/09/22 01:38:45;;;;;;;7.10;3.70;;;;;;;;;;5020995;28;20132;-83
2022/09/22 01:41:44;;;;;;;6.65;3.55;;;;;;;;;;4897668;29;20117;-83
2022/09/22 01:44:39;;;;;;;7.95;4.15;;;;;;;;;;4903628;29;20086;-83
2022/09/22 01:47:18;;;;;;;5.68;3.00;;;;;;;;;;4928361;29;20122;-83
2022/09/22 01:50:26;;;;;;;6.47;3.45;;;;;;;;;;4928303;29;20143;-83
2022/09/22 01:52:59;;;;;;;7.38;3.15;;;;;;;;;;4927320;28;20105;-83
2022/09/22 01:55:31;;;;;;;6.10;3.50;;;;;;;;;;4966904;28;20061;-84
2022/09/22 01:58:04;;;;;;;6.55;3.17;;;;;;;;;;4952751;28;20046;-83
2022/09/22 02:00:59;;;;;;;6.50;2.95;;;;;;;;;;4966154;28;20050;-83
2022/09/22 02:03:42;;;;;;;8.93;3.00;;;;;;;;;;4952620;28;20530;-84
2022/09/22 02:06:15;;;;;;;4.93;2.80;;;;;;;;;;4964058;28;20662;-83
2022/09/22 02:08:58;;;;;;;8.02;3.17;;;;;;;;;;4968249;28;20047;-83
2022/09/22 02:11:49;;;;;;;5.80;3.05;;;;;;;;;;4966893;28;20057;-83
2022/09/22 02:14:17;;;;;;;7.18;2.70;;;;;;;;;;4965807;28;20169;-83
2022/09/22 02:17:09;;;;;;;7.72;3.35;;;;;;;;;;4964415;28;20034;-84
2022/09/22 02:20:04;;;;;;;5.32;2.80;;;;;;;;;;5067285;28;20715;-83
2022/09/22 02:22:59;;;;;;;5.88;2.83;;;;;;;;;;5053223;28;20060;-83
2022/09/22 02:25:27;;;;;;;5.03;2.55;;;;;;;;;;5065262;28;20044;-83
2022/09/22 02:27:56;;;;;;;5.82;3.22;;;;;;;;;;5065580;28;20047;-83
2022/09/22 02:30:29;;;;;;;8.15;3.33;;;;;;;;;;5048413;28;20040;-83
2022/09/22 02:33:02;;;;;;;7.68;2.90;;;;;;;;;;5048569;28;20467;-83
2022/09/22 02:35:36;;;;;;;8.40;3.45;;;;;;;;;;5066676;28;20492;-83
2022/09/22 02:38:13;;;;;;;6.18;2.92;;;;;;;;;;5051026;28;20095;-83
2022/09/22 02:41:16;;;;;;;4.90;2.50;;;;;;;;;;5067016;28;20045;-83
2022/09/22 02:44:25;;;;;;;5.47;2.58;;;;;;;;;;5066502;28;20028;-83
2022/09/22 02:47:27;;;;;;;4.68;2.75;;;;;;;;;;5065685;28;20055;-83
2022/09/22 02:49:56;;;;;;;5.82;2.58;;;;;;;;;;5065019;28;20033;-83
2022/09/22 02:52:25;;;;;;;5.68;2.75;;;;;;;;;;5066005;28;20046;-83
2022/09/22 02:55:17;;;;;;;5.45;2.30;;;;;;;;;;5067554;28;20538;-83
2022/09/22 02:57:45;;;;;;;4.65;2.20;;;;;;;;;;5066224;28;20032;-83
2022/09/22 03:00:13;;;;;;;3.85;2.05;;;;;;;;;;5050292;28;20044;-83
2022/09/22 03:02:51;;;;;;;4.93;2.20;;;;;;;;;;5066985;28;20050;-83
2022/09/22 03:05:19;;;;;;;4.82;2.17;;;;;;;;;;5065362;28;20139;-83
2022/09/22 03:07:47;;;;;;;5.07;2.08;;;;;;;;;;5064094;28;20048;-83
2022/09/22 03:10:15;;;;;;;4.90;2.30;;;;;;;;;;5050312;28;20045;-83
2022/09/22 03:12:47;;;;;;;3.83;2.03;;;;;;;;;;5065415;28;20109;-83
2022/09/22 03:15:39;;;;;;;3.78;1.98;;;;;;;;;;5065085;28;20048;-84
2022/09/22 03:18:07;;;;;;;6.25;2.42;;;;;;;;;;5066042;28;20056;-83
2022/09/22 03:20:39;;;;;;;3.08;1.90;;;;;;;;;;5048957;28;20572;-83
2022/09/22 03:23:07;;;;;;;4.00;2.00;;;;;;;;;;5064781;28;20036;-84
2022/09/22 03:25:59;;;;;;;5.03;1.90;;;;;;;;;;5065919;28;20040;-83
2022/09/22 03:29:15;;;;;;;3.92;2.20;;;;;;;;;;5065877;28;20116;-83
2022/09/22 03:31:43;;;;;;;5.57;2.22;;;;;;;;;;5048531;28;20114;-83
2022/09/22 03:34:16;;;;;;;4.88;2.20;;;;;;;;;;5067486;28;20037;-83
2022/09/22 03:36:49;;;;;;;7.45;2.10;;;;;;;;;;5065007;28;20082;-84
2022/09/22 03:39:41;;;;;;;5.32;2.13;;;;;;;;;;5065099;28;20036;-83
2022/09/22 03:42:09;;;;;;;3.83;2.00;;;;;;;;;;5065458;28;20435;-83
2022/09/22 03:44:37;;;;;;;5.78;2.20;;;;;;;;;;5026516;28;20048;-83
2022/09/22 03:47:09;;;;;;;4.72;2.50;;;;;;;;;;5064750;28;20075;-82
2022/09/22 03:49:37;;;;;;;4.35;2.45;;;;;;;;;;5064419;28;20040;-83
2022/09/22 03:52:05;;;;;;;4.75;2.15;;;;;;;;;;5064106;28;20381;-83
2022/09/22 03:54:34;;;;;;;3.85;2.40;;;;;;;;;;5063573;28;20121;-83
2022/09/22 03:57:01;;;;;;;5.07;2.20;;;;;;;;;;5063644;28;20044;-83
2022/09/22 03:59:29;;;;;;;5.22;2.00;;;;;;;;;;5063515;28;20435;-83
2022/09/22 04:02:03;;;;;;;4.78;2.45;;;;;;;;;;5061482;28;20124;-83
2022/09/22 04:04:31;;;;;;;5.78;2.03;;;;;;;;;;5064196;28;20098;-83
2022/09/22 04:06:59;;;;;;;4.55;2.33;;;;;;;;;;5067260;28;20135;-83
2022/09/22 04:09:33;;;;;;;4.45;2.33;;;;;;;;;;5061567;28;20037;-83
2022/09/22 04:12:01;;;;;;;4.25;2.33;;;;;;;;;;5064305;28;20040;-83
2022/09/22 04:14:29;;;;;;;5.82;2.40;;;;;;;;;;5046830;28;20447;-83
2022/09/22 04:16:57;;;;;;;3.45;2.10;;;;;;;;;;5063748;28;20044;-83
2022/09/22 04:19:25;;;;;;;4.32;2.13;;;;;;;;;;5066017;28;20036;-83
2022/09/22 04:21:57;;;;;;;4.43;2.30;;;;;;;;;;5051310;28;20466;-83
2022/09/22 04:24:25;;;;;;;4.20;2.22;;;;;;;;;;5065653;28;20072;-83
2022/09/22 04:26:57;;;;;;;4.20;2.47;;;;;;;;;;5048334;28;20047;-83
2022/09/22 04:29:49;;;;;;;5.07;2.65;;;;;;;;;;5069380;28;20127;-83
2022/09/22 04:32:17;;;;;;;4.40;2.40;;;;;;;;;;5051905;28;20040;-83
2022/09/22 04:34:45;;;;;;;5.07;2.30;;;;;;;;;;5062600;28;20445;-83
2022/09/22 04:37:13;;;;;;;4.50;2.55;;;;;;;;;;5069375;28;20079;-83
2022/09/22 04:39:41;;;;;;;4.43;2.40;;;;;;;;;;5070920;28;20044;-83
2022/09/22 04:42:33;;;;;;;4.68;2.28;;;;;;;;;;5068955;28;20029;-83
2022/09/22 04:45:01;;;;;;;4.85;2.55;;;;;;;;;;5067339;28;20037;-83
2022/09/22 04:47:35;;;;;;;5.38;2.28;;;;;;;;;;5068794;28;20040;-83
2022/09/22 04:50:03;;;;;;;4.47;2.42;;;;;;;;;;5053984;28;20052;-83
2022/09/22 04:52:57;;;;;;;5.95;2.53;;;;;;;;;;5057301;28;20453;-83
2022/09/22 04:55:29;;;;;;;5.15;2.25;;;;;;;;;;5052652;28;20070;-84
2022/09/22 04:57:57;;;;;;;5.57;2.55;;;;;;;;;;5058545;28;20052;-84
2022/09/22 05:00:29;;;;;;;4.50;2.20;;;;;;;;;;5065423;28;20388;-84
2022/09/22 05:03:08;;;;;;;4.13;2.33;;;;;;;;;;5050727;28;20557;-84
2022/09/22 05:05:41;;;;;;;5.50;2.85;;;;;;;;;;5051372;28;20729;-84
2022/09/22 05:08:15;;;;;;;10.68;2.88;;;;;;;;;;5066086;28;20036;-83
2022/09/22 05:10:43;;;;;;;6.63;2.65;;;;;;;;;;5066875;28;20044;-82
2022/09/22 05:13:12;;;;;;;3.50;2.30;;;;;;;;;;5068615;28;20043;-83
2022/09/22 05:15:45;;;;;;;5.53;2.70;;;;;;;;;;5069440;28;20116;-84
2022/09/22 05:18:13;;;;;;;5.03;2.55;;;;;;;;;;5052281;28;20094;-83
2022/09/22 05:20:42;;;;;;;4.03;2.50;;;;;;;;;;5069348;28;20918;-83
2022/09/22 05:23:11;;;;;;;6.20;2.58;;;;;;;;;;5068663;28;20036;-83
2022/09/22 05:25:39;;;;;;;5.25;2.58;;;;;;;;;;5065973;28;20064;-83
2022/09/22 05:28:11;;;;;;;5.30;2.60;;;;;;;;;;5066198;28;20094;-83
2022/09/22 05:31:03;;;;;;;6.40;2.65;;;;;;;;;;5067967;28;20296;-83
2022/09/22 05:33:37;;;;;;;5.82;2.45;;;;;;;;;;5066082;28;20473;-83
2022/09/22 05:36:05;;;;;;;5.15;2.60;;;;;;;;;;5061335;28;20040;-83
2022/09/22 05:38:33;;;;;;;4.88;2.50;;;;;;;;;;5048146;28;20098;-84
2022/09/22 05:41:02;;;;;;;4.93;2.42;;;;;;;;;;5048843;28;22128;-84
2022/09/22 05:43:55;;;;;;;5.03;2.53;;;;;;;;;;5054714;28;20056;-83
2022/09/22 05:46:23;;;;;;;4.15;2.55;;;;;;;;;;5050983;28;20055;-83
2022/09/22 05:48:51;;;;;;;5.38;2.85;;;;;;;;;;5061547;28;20074;-83
2022/09/22 05:51:23;;;;;;;5.53;2.63;;;;;;;;;;5067985;28;20040;-83
2022/09/22 05:53:51;;;;;;;5.88;2.42;;;;;;;;;;5067299;28;20048;-84
2022/09/22 05:56:19;;;;;;;4.10;2.50;;;;;;;;;;5068872;28;20100;-83
2022/09/22 05:58:47;;;;;;;6.60;2.58;;;;;;;;;;5049255;28;20044;-83
2022/09/22 06:01:15;;;;;;;6.78;3.63;;;;;;;;;;5067711;28;20044;-83
2022/09/22 06:03:43;;;;;;;5.85;2.50;;;;;;;;;;5050283;28;20029;-83
2022/09/22 06:09:08;;;;;;;5.40;2.50;;;;;;;;;;5067534;28;20040;-83
2022/09/22 06:11:40;;;;;;;5.35;2.65;;;;;;;;;;5067583;28;20457;-83
2022/09/22 06:14:07;;;;;;;5.47;2.63;;;;;;;;;;5068532;28;20056;-83
2022/09/22 06:16:59;;;;;;;8.30;2.80;;;;;;;;;;5067865;28;20430;-82
2022/09/22 06:19:28;;;;;;;5.32;2.80;;;;;;;;;;5069043;28;20051;-81
2022/09/22 06:21:55;;;;;;;7.30;3.00;;;;;;;;;;5069324;28;20082;-83
2022/09/22 06:24:23;;;;;;;5.25;2.63;;;;;;;;;;5049575;28;20368;-83
2022/09/22 06:26:51;;;;;;;5.45;3.10;;;;;;;;;;5068575;28;20044;-82
2022/09/22 06:29:19;;;;;;;4.90;2.80;;;;;;;;;;5067965;28;20101;-83
2022/09/22 06:31:48;;;;;;;8.63;3.20;;;;;;;;;;5024928;28;20524;-83
2022/09/22 06:34:15;;;;;;;5.43;3.30;;;;;;;;;;5049597;28;20119;-83
2022/09/22 06:36:44;;;;;;;5.18;3.22;;;;;;;;;;5069539;28;20094;-83
2022/09/22 06:39:11;;;;;;;6.13;3.60;;;;;;;;;;5050447;28;20041;-83
2022/09/22 06:42:04;;;;;;;8.07;3.83;;;;;;;;;;5068286;28;20020;-83
2022/09/22 06:45:03;;;;;;;6.97;3.75;;;;;;;;;;5068729;28;20077;-83
2022/09/22 06:47:31;;;;;;;9.10;3.90;;;;;;;;;;5050601;28;20135;-83
2022/09/22 06:50:04;;;;;;;7.28;4.00;;;;;;;;;;5065616;28;20056;-83
2022/09/22 06:52:33;;;;;;;6.45;3.97;;;;;;;;;;5050942;28;20032;-83
2022/09/22 06:55:05;;;;;;;6.28;4.18;;;;;;;;;;5046628;28;20392;-83
2022/09/22 06:57:33;;;;;;;8.23;4.18;;;;;;;;;;5047407;28;20040;-83
2022/09/22 07:00:02;;;;;;;8.13;4.43;;;;;;;;;;5050152;28;20044;-83
2022/09/22 07:02:35;;;;;;;8.00;5.18;;;;;;;;;;5063412;28;20036;-83
2022/09/22 07:05:27;;;;;;;9.90;4.88;;;;;;;;;;5067260;28;20047;-82
2022/09/22 07:08:20;;;;;;;10.68;4.88;;;;;;;;;;5067216;28;20500;-83
2022/09/22 07:11:00;;;;;;;8.55;4.85;;;;;;;;;;5067755;28;20136;-83
2022/09/22 07:13:53;;;;;;;8.95;4.80;;;;;;;;;;5067474;28;20078;-83
2022/09/22 07:16:22;;;;;;;6.90;4.45;;;;;;;;;;5067513;28;20500;-83
2022/09/22 07:19:15;;;;;;;7.35;5.03;;;;;;;;;;5048497;28;20046;-83
2022/09/22 07:22:08;;;;;;;10.57;5.68;;;;;;;;;;5068202;28;20047;-83
2022/09/22 07:28:03;;;;;;;11.38;5.63;;;;;;;;;;5065687;28;20033;-83
2022/09/22 07:30:33;;;;;;;11.60;7.13;;;;;;;;;;5066068;28;20048;-83
2022/09/22 07:33:05;;;;;;;10.20;6.68;;;;;;;;;;5065839;28;20064;-83
2022/09/22 07:35:36;;;;;;;10.25;6.35;;;;;;;;;;5067998;28;20036;-83
2022/09/22 07:38:05;;;;;;;14.52;7.40;;;;;;;;;;5050354;28;20070;-83
2022/09/22 07:40:33;;;;;;;11.57;7.53;;;;;;;;;;5065442;28;20072;-83
2022/09/22 07:43:01;;;;;;;17.90;7.00;;;;;;;;;;5049797;28;20033;-83
2022/09/22 07:45:33;;;;;;;14.10;7.07;;;;;;;;;;5050432;28;20043;-83
2022/09/22 07:50:58;;;;;;;9.18;6.35;;;;;;;;;;5066029;28;20036;-83
2022/09/22 07:54:06;;;;;;;14.55;7.10;;;;;;;;;;5066540;28;20123;-83
2022/09/22 07:56:41;;;;;;;9.63;6.65;;;;;;;;;;5048755;28;20114;-83
2022/09/22 07:59:18;;;;;;;14.57;6.88;;;;;;;;;;5066710;28;20028;-83
2022/09/22 08:01:47;;;;;;;10.48;7.15;;;;;;;;;;5063433;28;20028;-83
2022/09/22 08:04:17;;;;;;;12.25;5.78;;;;;;;;;;5051798;28;20051;-83
2022/09/22 08:06:54;;;;;;;13.10;6.25;;;;;;;;;;5054980;28;20028;-83
2022/09/22 08:09:21;;;;;;;10.13;6.28;;;;;;;;;;5069476;28;20041;-84
2022/09/22 08:11:49;;;;;;;11.05;6.30;;;;;;;;;;5067687;28;20044;-84
2022/09/22 08:14:17;;;;;;;9.32;5.75;;;;;;;;;;5071039;28;20523;-84
2022/09/22 08:16:45;;;;;;;10.32;5.47;;;;;;;;;;5063458;28;20064;-84
2022/09/22 08:19:13;;;;;;;11.85;5.63;;;;;;;;;;5053037;28;20036;-83
2022/09/22 08:21:46;;;;;;;8.02;5.18;;;;;;;;;;5036475;28;20102;-83
2022/09/22 08:24:21;;;;;;;11.25;4.78;;;;;;;;;;5068954;28;20036;-82
2022/09/22 08:26:55;;;;;;;8.02;4.95;;;;;;;;;;5065220;28;20040;-83
2022/09/22 08:29:23;;;;;;;8.20;4.70;;;;;;;;;;5065066;28;20037;-83
2022/09/22 08:31:52;;;;;;;11.15;4.90;;;;;;;;;;5065744;28;20040;-84
2022/09/22 08:34:21;;;;;;;9.02;5.32;;;;;;;;;;5052820;28;20072;-83
2022/09/22 08:36:49;;;;;;;8.52;4.45;;;;;;;;;;5049985;28;20524;-84
2022/09/22 08:39:21;;;;;;;9.88;4.40;;;;;;;;;;5069773;28;20043;-83
2022/09/22 08:42:04;;;;;;;8.27;4.63;;;;;;;;;;5063735;28;20044;-83
2022/09/22 08:44:48;;;;;;;7.80;4.50;;;;;;;;;;5071323;28;20040;-84
2022/09/22 08:53:31;;;;;;;8.23;4.15;;;;;;;;;;5066873;28;20577;-84
2022/09/22 08:56:29;;;;;;;9.90;3.85;;;;;;;;;;5049469;28;20667;-84
2022/09/22 08:59:22;;;;;;;10.27;3.95;;;;;;;;;;5048031;28;20048;-83
2022/09/22 09:02:31;;;;;;;7.20;3.33;;;;;;;;;;5066889;28;20040;-84
2022/09/22 09:05:38;;;;;;;6.60;3.58;;;;;;;;;;5064344;28;20051;-84
2022/09/22 09:08:13;;;;;;;7.35;3.80;;;;;;;;;;5065130;28;20545;-83
2022/09/22 09:10:41;;;;;;;7.03;3.83;;;;;;;;;;5050529;28;20044;-84
2022/09/22 09:13:50;;;;;;;7.60;3.50;;;;;;;;;;5065578;28;20044;-84
2022/09/22 09:16:28;;;;;;;5.95;2.90;;;;;;;;;;5066149;28;20040;-84
2022/09/22 09:19:19;;;;;;;12.10;3.38;;;;;;;;;;5063805;28;20032;-83
2022/09/22 09:22:26;;;;;;;11.57;3.25;;;;;;;;;;5055380;28;20078;-84
2022/09/22 09:25:04;;;;;;;6.00;2.95;;;;;;;;;;5047324;28;20122;-83
2022/09/22 09:28:02;;;;;;;7.28;3.35;;;;;;;;;;5064743;28;20037;-84
2022/09/22 09:30:55;;;;;;;5.63;3.03;;;;;;;;;;5068549;28;20047;-84
2022/09/22 09:33:45;;;;;;;8.05;2.38;;;;;;;;;;5066237;28;20078;-83
2022/09/22 09:36:16;;;;;;;7.57;3.03;;;;;;;;;;5063735;28;20127;-84
2022/09/22 09:38:51;;;;;;;7.53;2.53;;;;;;;;;;5046157;28;20483;-84
2022/09/22 09:41:23;;;;;;;8.05;2.65;;;;;;;;;;5066002;28;20086;-84
2022/09/22 09:44:01;;;;;;;4.93;2.40;;;;;;;;;;5050082;28;20037;-83
2022/09/22 09:46:40;;;;;;;7.85;2.50;;;;;;;;;;5065830;28;20040;-84
2022/09/22 09:49:20;;;;;;;6.28;2.53;;;;;;;;;;5057733;28;20126;-84
2022/09/22 09:52:38;;;;;;;4.72;2.33;;;;;;;;;;5063745;28;20032;-84
2022/09/22 09:55:26;;;;;;;8.40;2.30;;;;;;;;;;5061208;28;20040;-84
2022/09/22 10:00:30;;;;;;;3.20;1.70;;;;;;;;;;5043341;28;20579;-84
2022/09/22 10:01:17;;;;;;;7.35;2.00;;;;;;;;;;5063375;28;20056;-84
2022/09/22 10:03:50;;;;;;;4.45;2.20;;;;;;;;;;5065556;28;20041;-84
2022/09/22 10:06:24;;;;;;;6.75;2.00;;;;;;;;;;5061039;28;20090;-84
2022/09/22 10:08:53;;;;;;;5.22;2.20;;;;;;;;;;5062617;28;20118;-84
2022/09/22 10:11:56;;;;;;;8.65;2.60;;;;;;;;;;5050307;28;20206;-84
2022/09/22 10:14:39;;;;;;;6.57;1.92;;;;;;;;;;5068519;28;20039;-84
2022/09/22 10:17:27;;;;;;;8.98;2.05;;;;;;;;;;5042564;28;20045;-84
2022/09/22 10:20:25;;;;;;;8.38;2.47;;;;;;;;;;5050894;28;20650;-84
2022/09/22 10:23:21;;;;;;;6.97;1.98;;;;;;;;;;5064331;28;20041;-84
2022/09/22 10:25:51;;;;;;;4.70;1.60;;;;;;;;;;5064269;28;20074;-85
2022/09/22 10:29:04;;;;;;;4.53;1.50;;;;;;;;;;5052333;28;20036;-84
2022/09/22 10:31:37;;;;;;;5.40;1.20;;;;;;;;;;5062947;28;20041;-85
2022/09/22 10:34:37;;;;;;;3.67;1.13;;;;;;;;;;5061745;28;20044;-85
2022/09/22 10:37:14;;;;;;;5.50;1.10;;;;;;;;;;5065310;28;20037;-85
2022/09/22 10:40:00;;;;;;;2.03;1.02;;;;;;;;;;5043598;28;20511;-84
2022/09/22 10:42:58;;;;;;;5.80;1.40;;;;;;;;;;5065589;28;20491;-84
2022/09/22 10:45:41;;;;;;;3.05;1.13;;;;;;;;;;5063802;28;20089;-85
2022/09/22 10:48:34;;;;;;;6.95;1.02;;;;;;;;;;5066042;28;20041;-85
2022/09/22 10:51:53;;;;;;;3.63;0.70;;;;;;;;;;5066471;28;20523;-85
2022/09/22 10:55:03;;;;;;;3.87;2.13;;;;;;;;;;5065552;28;20488;-85
2022/09/22 10:57:54;;;;;;;2.67;0.70;;;;;;;;;;5067027;28;20450;-85
2022/09/22 11:00:25;;;;;;;3.28;1.00;;;;;;;;;;5068035;28;20123;-85
2022/09/22 11:03:05;;;;;;;3.85;0.98;;;;;;;;;;5050217;28;20032;-84
2022/09/22 11:12:15;;;;;;;6.50;1.13;;;;;;;;;;4979036;28;20576;-85
2022/09/22 11:15:10;;;;;;;3.63;1.20;;;;;;;;;;4963789;28;20042;-85
2022/09/22 11:17:39;;;;;;;2.42;0.80;;;;;;;;;;4977950;28;20585;-84
2022/09/22 11:20:36;;;;;;;4.25;1.00;;;;;;;;;;4978034;28;20050;-85
2022/09/22 11:23:29;;;;;;;3.70;1.23;;;;;;;;;;4960910;28;20050;-85
2022/09/22 11:26:20;;;;;;;3.75;1.00;;;;;;;;;;4980725;28;20060;-85
2022/09/22 11:29:08;;;;;;;3.75;1.10;;;;;;;;;;4978900;28;20145;-85
2022/09/22 11:32:12;;;;;;;6.55;1.00;;;;;;;;;;4977349;28;20087;-85
2022/09/22 11:35:00;;;;;;;6.43;1.50;;;;;;;;;;4978081;28;20095;-85
2022/09/22 11:38:03;;;;;;;2.42;0.73;;;;;;;;;;4977228;28;20402;-84
2022/09/22 11:41:15;;;;;;;5.78;1.00;;;;;;;;;;4964453;28;20653;-84
2022/09/22 11:44:04;;;;;;;5.25;0.70;;;;;;;;;;4961402;28;20049;-85
2022/09/22 11:46:47;;;;;;;3.92;0.90;;;;;;;;;;5054641;28;20056;-85
2022/09/22 11:49:30;;;;;;;4.18;0.88;;;;;;;;;;5062829;28;20041;-84
2022/09/22 11:52:59;;;;;;;3.58;0.68;;;;;;;;;;5066721;28;20035;-84
2022/09/22 11:55:38;;;;;;;3.20;0.73;;;;;;;;;;5052447;28;20435;-85
2022/09/22 11:58:13;;;;;;;3.60;0.80;;;;;;;;;;5027032;28;20048;-85
2022/09/22 12:00:53;;;;;;;3.03;0.80;;;;;;;;;;5065494;28;20151;-85
2022/09/22 12:03:36;;;;;;;5.07;1.15;;;;;;;;;;5062281;28;20039;-85
2022/09/22 12:06:34;;;;;;;3.47;2.03;;;;;;;;;;5065841;28;20415;-85
2022/09/22 12:09:43;;;;;;;5.07;1.20;;;;;;;;;;5064508;28;20032;-85
2022/09/22 12:12:36;;;;;;;6.20;1.00;;;;;;;;;;5044312;28;20040;-85
2022/09/22 12:15:33;;;;;;;2.50;0.98;;;;;;;;;;5064035;28;20029;-84
2022/09/22 12:18:36;;;;;;;6.30;1.00;;;;;;;;;;5062176;28;20040;-85
2022/09/22 12:21:13;;;;;;;2.72;0.77;;;;;;;;;;4985515;28;20061;-85
2022/09/22 12:23:48;;;;;;;3.85;1.30;;;;;;;;;;4985521;28;20046;-85
2022/09/22 12:26:32;;;;;;;4.00;1.00;;;;;;;;;;4984555;28;20057;-86
2022/09/22 12:29:09;;;;;;;3.05;0.93;;;;;;;;;;4954178;28;20053;-86
2022/09/22 12:31:47;;;;;;;3.30;1.00;;;;;;;;;;4965279;28;20134;-85
2022/09/22 12:34:27;;;;;;;6.38;2.13;;;;;;;;;;4984710;28;20274;-85
2022/09/22 12:37:07;;;;;;;3.15;1.00;;;;;;;;;;4983719;28;20065;-86
2022/09/22 12:39:40;;;;;;;3.53;0.90;;;;;;;;;;4965350;28;20083;-86
2022/09/22 12:42:38;;;;;;;4.32;1.20;;;;;;;;;;4968107;28;20050;-86
2022/09/22 12:45:40;;;;;;;4.47;1.20;;;;;;;;;;4982973;28;20039;-86
2022/09/22 12:49:21;;;;;;;5.10;1.05;;;;;;;;;;4970489;28;20181;-86
2022/09/22 12:53:22;;;;;;;2.75;1.02;;;;;;;;;;4988408;28;20506;-86
2022/09/22 12:57:41;;;;;;;5.13;1.30;;;;;;;;;;5026563;28;20036;-86
2022/09/22 13:02:14;;;;;;;2.08;0.90;;;;;;;;;;5064238;28;20603;-87
2022/09/22 13:06:22;;;;;;;2.85;1.00;;;;;;;;;;5039730;28;20051;-86
2022/09/22 13:09:42;;;;;;;6.63;1.85;;;;;;;;;;5038835;28;20048;-85
2022/09/22 13:13:02;;;;;;;3.50;1.15;;;;;;;;;;5031759;28;20519;-86
2022/09/22 13:16:19;;;;;;;2.70;0.82;;;;;;;;;;5044481;28;20052;-84
2022/09/22 13:18:55;;;;;;;4.22;1.15;;;;;;;;;;5024006;28;20136;-86
2022/09/22 13:21:32;;;;;;;3.63;1.00;;;;;;;;;;5023603;28;20120;-86
2022/09/22 13:24:07;;;;;;;2.03;0.90;;;;;;;;;;5038277;28;20044;-85
2022/09/22 13:26:40;;;;;;;5.22;1.17;;;;;;;;;;5040147;28;20056;-85
2022/09/22 13:29:23;;;;;;;2.30;0.88;;;;;;;;;;5030369;28;20045;-84
2022/09/22 13:31:56;;;;;;;4.30;1.10;;;;;;;;;;5023775;28;20052;-85
2022/09/22 13:34:43;;;;;;;5.50;1.27;;;;;;;;;;5021508;28;20041;-84
2022/09/22 13:37:30;;;;;;;3.20;1.00;;;;;;;;;;5043810;28;20151;-84
2022/09/22 13:40:11;;;;;;;5.85;1.20;;;;;;;;;;5010740;28;20086;-84
2022/09/22 13:43:11;;;;;;;4.53;1.00;;;;;;;;;;5008536;28;20037;-84
2022/09/22 13:45:55;;;;;;;2.60;0.98;;;;;;;;;;5046719;28;20529;-85
2022/09/22 13:48:36;;;;;;;3.67;1.30;;;;;;;;;;5044327;28;20064;-85
2022/09/22 13:51:12;;;;;;;4.20;1.33;;;;;;;;;;5029609;28;20704;-86
2022/09/22 13:53:47;;;;;;;4.60;1.13;;;;;;;;;;5023275;28;20052;-85
2022/09/22 13:56:18;;;;;;;2.83;1.02;;;;;;;;;;5043070;28;20057;-85
2022/09/22 13:59:15;;;;;;;2.88;0.80;;;;;;;;;;5042858;28;20084;-85
2022/09/22 14:01:52;;;;;;;4.45;0.85;;;;;;;;;;5025640;28;20436;-85
2022/09/22 14:04:26;;;;;;;5.65;1.20;;;;;;;;;;5046235;28;20044;-85
2022/09/22 14:06:58;;;;;;;10.30;1.27;;;;;;;;;;5044458;28;20087;-85
2022/09/22 14:09:51;;;;;;;2.47;0.90;;;;;;;;;;5038982;28;20801;-85
2022/09/22 14:12:27;;;;;;;3.55;0.90;;;;;;;;;;5049300;28;20060;-85
2022/09/22 14:15:36;;;;;;;3.20;0.95;;;;;;;;;;5069316;28;20043;-85
2022/09/22 14:18:28;;;;;;;5.80;1.33;;;;;;;;;;5064947;28;20083;-85
2022/09/22 14:20:58;;;;;;;3.03;0.98;;;;;;;;;;5051564;28;20627;-86
2022/09/22 14:23:51;;;;;;;3.03;0.80;;;;;;;;;;5045583;28;20059;-85
2022/09/22 14:26:32;;;;;;;4.40;1.05;;;;;;;;;;5064340;28;20067;-85
2022/09/22 14:29:19;;;;;;;1.95;0.90;;;;;;;;;;5064981;28;20044;-85
2022/09/22 14:31:51;;;;;;;3.28;1.00;;;;;;;;;;5069054;28;20043;-86
2022/09/22 14:34:24;;;;;;;3.33;1.13;;;;;;;;;;5066831;28;20102;-86
2022/09/22 14:37:44;;;;;;;3.67;1.05;;;;;;;;;;5066798;28;20040;-85
2022/09/22 14:40:49;;;;;;;3.38;0.82;;;;;;;;;;5051152;28;20063;-85
2022/09/22 14:43:30;;;;;;;3.42;1.00;;;;;;;;;;5067729;28;20072;-85
2022/09/22 14:46:18;;;;;;;2.80;1.05;;;;;;;;;;5068659;28;20040;-85
2022/09/22 14:48:49;;;;;;;4.22;1.23;;;;;;;;;;5066928;28;20044;-85
2022/09/22 14:51:21;;;;;;;2.35;1.02;;;;;;;;;;5045113;28;20435;-84
2022/09/22 14:54:00;;;;;;;4.18;1.25;;;;;;;;;;5051304;28;20455;-85
2022/09/22 14:56:57;;;;;;;2.97;1.63;;;;;;;;;;5064656;28;20037;-85
2022/09/22 15:03:14;;;;;;;5.68;1.13;;;;;;;;;;5046964;28;20068;-85
2022/09/22 15:05:49;;;;;;;4.93;1.45;;;;;;;;;;5030377;28;20408;-85
2022/09/22 15:08:24;;;;;;;3.50;1.05;;;;;;;;;;5062373;28;20074;-85
2022/09/22 15:10:53;;;;;;;6.28;1.08;;;;;;;;;;5050874;28;20037;-85
2022/09/22 15:13:41;;;;;;;3.80;1.20;;;;;;;;;;5066018;28;20044;-85
2022/09/22 15:16:42;;;;;;;3.50;1.20;;;;;;;;;;5067041;28;20064;-85
2022/09/22 15:19:59;;;;;;;4.45;1.02;;;;;;;;;;5064762;28;20055;-85
2022/09/22 15:22:27;;;;;;;3.30;0.90;;;;;;;;;;5068696;28;20123;-84
2022/09/22 15:25:22;;;;;;;3.30;0.90;;;;;;;;;;5069357;28;20046;-84
2022/09/22 15:28:18;;;;;;;4.32;0.90;;;;;;;;;;5051239;28;20021;-85
2022/09/22 15:30:52;;;;;;;1.85;0.93;;;;;;;;;;5061345;28;20072;-85
2022/09/22 15:33:25;;;;;;;1.60;0.90;;;;;;;;;;5066043;28;20060;-85
2022/09/22 15:36:38;;;;;;;3.35;1.30;;;;;;;;;;5054505;28;20071;-85
2022/09/22 15:39:25;;;;;;;5.00;1.23;;;;;;;;;;5050446;28;20045;-84
2022/09/22 15:42:14;;;;;;;4.85;0.90;;;;;;;;;;5064746;28;20036;-84
2022/09/22 15:45:17;;;;;;;2.65;1.10;;;;;;;;;;5054192;28;20575;-84
2022/09/22 15:47:52;;;;;;;1.65;0.75;;;;;;;;;;5048048;28;20511;-84
2022/09/22 15:50:27;;;;;;;2.65;1.00;;;;;;;;;;5063298;28;20041;-84
2022/09/22 15:53:03;;;;;;;4.07;1.10;;;;;;;;;;5062153;28;20124;-84
2022/09/22 15:55:32;;;;;;;2.58;0.90;;;;;;;;;;5064223;28;20487;-84
2022/09/22 15:58:07;;;;;;;3.65;1.23;;;;;;;;;;5048997;28;20504;-85
2022/09/22 16:00:41;;;;;;;5.57;1.10;;;;;;;;;;5064359;28;20086;-84
2022/09/22 16:03:14;;;;;;;3.25;0.95;;;;;;;;;;5063730;28;20071;-84
2022/09/22 16:06:11;;;;;;;4.40;1.02;;;;;;;;;;5066748;28;20443;-84
2022/09/22 16:08:48;;;;;;;3.35;0.90;;;;;;;;;;5065049;28;20085;-84
2022/09/22 16:11:29;;;;;;;2.35;0.95;;;;;;;;;;5064528;28;20161;-84
2022/09/22 16:14:11;;;;;;;3.60;1.75;;;;;;;;;;5043627;28;20068;-85
2022/09/22 16:16:41;;;;;;;2.28;1.17;;;;;;;;;;5040985;28;20147;-84
2022/09/22 16:19:30;;;;;;;4.30;1.00;;;;;;;;;;5064140;28;20127;-84
2022/09/22 16:22:13;;;;;;;3.60;1.40;;;;;;;;;;5049164;28;20060;-84
2022/09/22 16:24:45;;;;;;;3.17;1.17;;;;;;;;;;5048440;28;20041;-84
2022/09/22 16:27:28;;;;;;;4.65;1.20;;;;;;;;;;5070744;28;20107;-84
2022/09/22 16:30:11;;;;;;;3.30;1.20;;;;;;;;;;5057128;28;20036;-84
2022/09/22 16:33:03;;;;;;;5.35;1.80;;;;;;;;;;5037446;28;20503;-84
2022/09/22 16:35:45;;;;;;;3.88;1.45;;;;;;;;;;5047591;28;20487;-84